Home > Products > Valid Products > MTR

000
SAUS44 KMEG 042054
MTRTUP
METAR KTUP 042053Z 00000KT 3/4SM +RA BR BKN022 OVC027 21/21 A2999
RMK AO2 RAB31 SLP153 P0020 60021 T02110206 55007





000
SAUS44 KMEG 042052
MTRTUP
SPECI KTUP 042051Z 34003KT 3/4SM +RA BR BKN022 OVC027 21/21 A2999
RMK AO2 RAB31 P0018





000
SAUS44 KMEG 042042
MTRTUP
SPECI KTUP 042041Z 34003G14KT 1 1/2SM RA BR FEW018 OVC026 22/19
A2999 RMK AO2 RAB31 P0002 T02170194





000
SAUS44 KMEG 041954
MTRTUP
METAR KTUP 041953Z 30003KT 10SM BKN027 25/20 A2999 RMK AO2 SLP151
T02500200





000
SAUS44 KMEG 041947
MTRTUP
SPECI KTUP 041945Z 34004KT 10SM FEW022 BKN027 25/20 A2999 RMK AO2
T02500200





000
SAUS44 KMEG 041854
MTRTUP
METAR KTUP 041853Z 00000KT 10SM FEW019 BKN120 24/22 A3001 RMK AO2
RAB14E39 SLP159 P0001 T02440217





000
SAUS44 KMEG 041854
MTRTUP
METAR KTUP 041853Z 00000KT 10SM FEW019 BKN120 24/22 A3001 RMK AO2
RAB14E39 SLP159 P0001 T02440217





000
SAUS44 KMEG 041754
MTRTUP
METAR KTUP 041753Z VRB05KT 10SM BKN120 24/21 A3002 RMK AO2 SLP162
60006 T02440211 10250 20211 56004





000
SAUS44 KMEG 041754
MTRTUP
METAR KTUP 041753Z VRB05KT 10SM BKN120 24/21 A3002 RMK AO2 SLP162
60006 T02440211 10250 20211 56004





000
SAUS44 KMEG 041654
MTRTUP
METAR KTUP 041653Z 27006KT 10SM FEW090 SCT110 25/22 A3003 RMK AO2
RAB29E39 SLP164 P0000 T02500222





000
SAUS44 KMEG 041554
MTRTUP
METAR KTUP 041553Z 25005KT 10SM FEW090 BKN110 24/22 A3001 RMK AO2
RAB03E14 SLP160 P0000 T02390217





000
SAUS44 KMEG 041454
MTRTUP
METAR KTUP 041453Z VRB03KT 10SM BKN110 22/21 A3003 RMK AO2 RAB00E33
SLP167 P0001 60006 T02220206 50015





000
SAUS44 KMEG 041454
MTRTUP
METAR KTUP 041453Z VRB03KT 10SM BKN110 22/21 A3003 RMK AO2 RAB00E33
SLP167 P0001 60006 T02220206 50015





000
SAUS44 KMEG 041401
MTRTUP
SPECI KTUP 041400Z 23010KT 10SM -RA FEW007 FEW090 BKN110 22/21 A3005
RMK AO2 RAB00 P0000 T02170206





000
SAUS44 KMEG 041354
MTRTUP
METAR KTUP 041353Z 23011KT 10SM BKN110 22/21 A3005 RMK AO2 RAB18E28
SLP171 P0000 T02170206





000
SAUS44 KMEG 041354
MTRTUP
METAR KTUP 041353Z 23011KT 10SM BKN110 22/21 A3005 RMK AO2 RAB18E28
SLP171 P0000 T02170206





000
SAUS44 KMEG 041254
MTRTUP
METAR KTUP 041253Z 20006KT 10SM SCT110 22/21 A2999 RMK AO2 RAE47
SLP153 P0005 T02170206





000
SAUS44 KMEG 041254
MTRTUP
METAR KTUP 041253Z 20006KT 10SM SCT110 22/21 A2999 RMK AO2 RAE47
SLP153 P0005 T02170206





000
SAUS44 KMEG 041154
MTRTUP
METAR KTUP 041153Z 00000KT 3SM RA BR FEW080 BKN100 BKN120 22/19
A2999 RMK AO2 LTG DSNT E AND SE TSB01E16 SLP152 P0022 60139 70524
T02170194 10217 20211 58005





000
SAUS44 KMEG 041123
MTRTUP
SPECI KTUP 041122Z 25005KT 4SM VCTS RA BR FEW055 BKN100 OVC120 22/20
A3001 RMK AO2 LTG DSNT SE AND SW TSB01E16 P0010 T02170200





000
SAUS44 KMEG 041108
MTRTUP
SPECI KTUP 041107Z 24006KT 4SM TSRA BR FEW018 BKN100 OVC120 22/20
A3001 RMK AO2 LTG DSNT SE-W TSB01 P0005 T02170200





000
SAUS44 KMEG 041108
MTRTUP
SPECI KTUP 041107Z 24006KT 4SM TSRA BR FEW018 BKN100 OVC120 22/20
A3001 RMK AO2 LTG DSNT SE-W TSB01 P0005 T02170200





000
SAUS44 KMEG 041054
MTRTUP
METAR KTUP 041053Z 24005KT 5SM RA BR SCT017 BKN075 OVC120 21/20
A3001 RMK AO2 LTG DSNT SE-W TSB11E30B36E51 SLP157 P0010 T02110200





000
SAUS44 KMEG 041054
MTRTUP
METAR KTUP 041053Z 24005KT 5SM RA BR SCT017 BKN075 OVC120 21/20
A3001 RMK AO2 LTG DSNT SE-W TSB11E30B36E51 SLP157 P0010 T02110200





000
SAUS44 KMEG 041050
MTRTUP
SPECI KTUP 041049Z 24006KT 4SM TSRA BR SCT013 BKN055 OVC110 21/20
A3001 RMK AO2 LTG DSNT ALQDS TSB11E30B36 P0009





000
SAUS44 KMEG 041037
MTRTUP
SPECI KTUP 041036Z 23006KT 10SM -TSRA BKN013 BKN060 BKN120 21/20
A3000 RMK AO2 LTG DSNT ALQDS TSB11E30B36 P0007 T02110200





000
SAUS44 KMEG 041037
MTRTUP
SPECI KTUP 041036Z 23006KT 10SM -TSRA BKN013 BKN060 BKN120 21/20
A3000 RMK AO2 LTG DSNT ALQDS TSB11E30B36 P0007 T02110200





000
SAUS44 KMEG 041018
MTRTUP
SPECI KTUP 041017Z AUTO 24007KT 5SM TSRA BR SCT014 SCT090 BKN110
21/20 A2998 RMK AO2 LTG DSNT SE-W TSB11 PRESRR P0003 T02110200





000
SAUS44 KMEG 041018
MTRTUP
SPECI KTUP 041017Z AUTO 24007KT 5SM TSRA BR SCT014 SCT090 BKN110
21/20 A2998 RMK AO2 LTG DSNT SE-W TSB11 PRESRR P0003 T02110200





000
SAUS44 KMEG 040955
MTRTUP
METAR KTUP 040953Z AUTO 18007KT 9SM VCTS -RA FEW010 FEW100 BKN120
21/20 A2995 RMK AO2 LTG DSNT ALQDS TSE28 SLP136 P0035 T02110200





000
SAUS44 KMEG 040948
MTRTUP
SPECI KTUP 040946Z AUTO 20009KT 10SM VCTS -RA FEW007 SCT095 BKN120
21/20 A2995 RMK AO2 LTG DSNT ALQDS TSE28 P0035 T02110200





000
SAUS44 KMEG 040929
MTRTUP
SPECI KTUP 040928Z AUTO 25007KT 8SM VCTS -RA SCT045 BKN100 OVC120
22/21 A2996 RMK AO2 LTG DSNT ALQDS TSE28 P0033 T02170206





000
SAUS44 KMEG 040929
MTRTUP
SPECI KTUP 040928Z AUTO 25007KT 8SM VCTS -RA SCT045 BKN100 OVC120
22/21 A2996 RMK AO2 LTG DSNT ALQDS TSE28 P0033 T02170206





000
SAUS44 KMEG 040909
MTRTUP
SPECI KTUP 040908Z AUTO 24008KT 2 1/2SM +TSRA BR BKN036 BKN044
OVC065 21/20 A2996 RMK AO2 LTG DSNT ALQDS P0017 T02110200





000
SAUS44 KMEG 040909
MTRTUP
SPECI KTUP 040908Z AUTO 24008KT 2 1/2SM +TSRA BR BKN036 BKN044
OVC065 21/20 A2996 RMK AO2 LTG DSNT ALQDS P0017 T02110200





000
SAUS44 KMEG 040854
MTRTUP
METAR KTUP 040853Z AUTO 27006KT 1 1/4SM +TSRA BR FEW015 FEW024
OVC034 21/20 A2995 RMK AO2 LTG DSNT ALQDS RAB0758 TSB0758E38B40
SLP137 P0051 60072 T02110200 55001





000
SAUS44 KMEG 040854
MTRTUP
METAR KTUP 040853Z AUTO 27006KT 1 1/4SM +TSRA BR FEW015 FEW024
OVC034 21/20 A2995 RMK AO2 LTG DSNT ALQDS RAB0758 TSB0758E38B40
SLP137 P0051 60072 T02110200 55001





000
SAUS44 KMEG 040841
MTRTUP
SPECI KTUP 040840Z AUTO 28008KT 2 1/2SM TSRA BR BKN019 BKN037 BKN120
21/19 A2996 RMK AO2 LTG DSNT ALQDS RAB0758 TSB0758E38B40 P0021
T02110194





000
SAUS44 KMEG 040823
MTRTUP
SPECI KTUP 040822Z AUTO VRB03KT 7SM -TSRA FEW022 BKN037 BKN060 21/19
A2993 RMK AO2 LTG DSNT W AND NW RAB0758 TSB0758 P0019 T02110194





000
SAUS44 KMEG 040813
MTRTUP
SPECI KTUP 040811Z VRB03G15KT 2SM +TSRA BR FEW022 BKN037 OVC070
21/20 A2993 RMK AO2 LTG DSNT W AND NW RAB0758 TSB0758 P0016
T02110200





000
SAUS44 KMEG 040806
MTRTUP
SPECI KTUP 040804Z 33011G16KT 3SM +TSRA BR FEW024 BKN041 OVC070
21/20 A2994 RMK AO2 LTG DSNT ALQDS RAB0758 TSB0758 P0005 T02110200





000
SAUS44 KMEG 040754
MTRTUP
METAR KTUP 040753Z VRB03KT 10SM VCTS FEW031 BKN041 OVC080 21/20
A2993 RMK AO2 LTG DSNT ALQDS RAE00 TSE0654B0659E14B23E38 SLP133
P0000 T02110200





000
SAUS44 KMEG 040754
MTRTUP
METAR KTUP 040753Z VRB03KT 10SM VCTS FEW031 BKN041 OVC080 21/20
A2993 RMK AO2 LTG DSNT ALQDS RAE00 TSE0654B0659E14B23E38 SLP133
P0000 T02110200





000
SAUS44 KMEG 040745
MTRTUP
SPECI KTUP 040744Z 12005KT 10SM VCTS FEW029 BKN040 OVC080 21/20
A2993 RMK AO2 LTG DSNT W AND NW RAE00 TSE0654B0659E14B23E38 P0000
T02110200





000
SAUS44 KMEG 040745
MTRTUP
SPECI KTUP 040744Z 12005KT 10SM VCTS FEW029 BKN040 OVC080 21/20
A2993 RMK AO2 LTG DSNT W AND NW RAE00 TSE0654B0659E14B23E38 P0000
T02110200





000
SAUS44 KMEG 040729
MTRTUP
SPECI KTUP 040728Z 12005KT 10SM TS SCT029 BKN034 BKN060 21/20 A2993
RMK AO2 LTG DSNT SE-W RAE00 TSE0654B0659E14B23 P0000 T02110200





000
SAUS44 KMEG 040715
MTRTUP
SPECI KTUP 040714Z 15004KT 10SM VCTS FEW015 BKN028 OVC033 21/21
A2994 RMK AO2 LTG DSNT N-SE RAE00 TSE0654B0659E14 P0000 T02110206





000
SAUS44 KMEG 040715
MTRTUP
SPECI KTUP 040714Z 15004KT 10SM VCTS FEW015 BKN028 OVC033 21/21
A2994 RMK AO2 LTG DSNT N-SE RAE00 TSE0654B0659E14 P0000 T02110206





000
SAUS44 KMEG 040654
MTRTUP
METAR KTUP 040653Z 20005KT 7SM -TSRA FEW014 BKN030 OVC038 21/19
A2995 RMK AO2 LTG DSNT S-NW RAB06E32B47 TSB39 SLP137 P0021 T02110194





000
SAUS44 KMEG 040640
MTRTUP
SPECI KTUP 040639Z 00000KT 10SM TS SCT028 BKN036 OVC048 21/20 A2995
RMK AO2 LTG DSNT S AND NW RAB06E32 TSB39 P0020 T02110200





000
SAUS44 KMEG 040631
MTRTUP
SPECI KTUP 040630Z 36003KT 3SM VCTS -RA BR BKN027 BKN039 OVC049
21/21 A2996 RMK AO2 LTG DSNT S-W RAB06 P0020 T02110206





000
SAUS44 KMEG 040630
MTRTUP
SPECI KTUP 040628Z 00000KT 1 3/4SM VCTS -RA BR BKN027 BKN039 OVC049
21/21 A2994 RMK AO2 LTG DSNT S-W RAB06 P0020 T02110206





000
SAUS44 KMEG 040621
MTRTUP
SPECI KTUP 040620Z VRB05KT 1 3/4SM +RA BR SCT031 BKN038 OVC070 21/20
A2995 RMK AO2 LTG DSNT SW AND W RAB06 P0005 T02110200





000
SAUS44 KMEG 040554
MTRTUP
METAR KTUP 040553Z 19003KT 10SM SCT036 BKN043 BKN055 21/20 A2995 RMK
AO2 RAB00E25 SLP138 P0002 60019 T02110200 10239 20211 402670211
58001





000
SAUS44 KMEG 040454
MTRTUP
METAR KTUP 040453Z 00000KT 10SM FEW010 BKN032 OVC048 21/20 A2996 RMK
AO2 RAB10E47 SLP142 P0014 T02110200





000
SAUS44 KMEG 040447
MTRTUP
SPECI KTUP 040445Z 00000KT 10SM -RA FEW008 OVC032 21/20 A2996 RMK
AO2 RAB10 P0014 T02110200





000
SAUS44 KMEG 040438
MTRTUP
SPECI KTUP 040437Z VRB04KT 10SM -RA SCT008 BKN021 OVC030 21/19 A2996
RMK AO2 RAB10 P0014 T02110194





000
SAUS44 KMEG 040426
MTRTUP
SPECI KTUP 040424Z 02003KT 3SM -RA BR SCT008 BKN013 OVC040 21/19
A2997 RMK AO2 RAB10 P0014 T02110194





000
SAUS44 KMEG 040426
MTRTUP
SPECI KTUP 040424Z 02003KT 3SM -RA BR SCT008 BKN013 OVC040 21/19
A2997 RMK AO2 RAB10 P0014 T02110194





000
SAUS44 KMEG 040420
MTRTUP
SPECI KTUP 040419Z 00000KT 1 1/2SM +RA BR FEW008 BKN019 OVC042 21/19
A2996 RMK AO2 RAB10 P0011 T02110194





000
SAUS44 KMEG 040420
MTRTUP
SPECI KTUP 040419Z 00000KT 1 1/2SM +RA BR FEW008 BKN019 OVC042 21/19
A2996 RMK AO2 RAB10 P0011 T02110194





000
SAUS44 KMEG 040416
MTRTUP
SPECI KTUP 040414Z 00000KT 1 3/4SM +RA BR FEW017 BKN032 OVC070 21/19
A2996 RMK AO2 RAB10 P0003 T02110194





000
SAUS44 KMEG 040354
MTRTUP
METAR KTUP 040353Z 00000KT 10SM FEW044 BKN070 OVC100 21/20 A2996 RMK
AO2 SLP141 T02110200





000
SAUS44 KMEG 040254
MTRTUP
METAR KTUP 040253Z 24006KT 10SM SCT039 BKN048 OVC080 21/20 A2995 RMK
AO2 RAB29E51 SLP140 P0000 60003 T02110200 53007





000
SAUS44 KMEG 040154
MTRTUP
METAR KTUP 040153Z 23008KT 10SM SCT100 BKN120 22/20 A2992 RMK AO2
SLP130 T02220200





000
SAUS44 KMEG 040054
MTRTUP
METAR KTUP 040053Z 22009KT 10SM FEW024 SCT035 BKN110 23/22 A2993 RMK
AO2 LTG DSNT SE AND S RAB36E47 SLP132 P0003 T02330222





000
SAUS44 KMEG 040054
MTRTUP
METAR KTUP 040053Z 22009KT 10SM FEW024 SCT035 BKN110 23/22 A2993 RMK
AO2 LTG DSNT SE AND S RAB36E47 SLP132 P0003 T02330222





000
SAUS44 KMEG 032354
MTRTUP
METAR KTUP 032353Z 21007KT 10SM FEW050 FEW065 24/22 A2993 RMK AO2
LTG DSNT NW SLP132 60115 T02390222 10239 20217 56017





000
SAUS44 KMEG 032254
MTRTUP
METAR KTUP 032253Z 23007KT 10SM FEW036 23/22 A2994 RMK AO2 SLP135
P0001 T02330222





000
SAUS44 KMEG 032154
MTRTUP
METAR KTUP 032153Z 22003KT 10SM FEW036 SCT090 BKN110 22/21 A2996 RMK
AO2 RAE39 TSE05 SLP143 P0016 T02220211





000
SAUS44 KMEG 032131
MTRTUP
SPECI KTUP 032131Z 22006KT 6SM -RA BR FEW047 SCT070 BKN100 22/21
A2997 RMK AO2 TSE05 P0016 T02170206





000
SAUS44 KMEG 032131
MTRTUP
SPECI KTUP 032131Z 22006KT 6SM -RA BR FEW047 SCT070 BKN100 22/21
A2997 RMK AO2 TSE05 P0016 T02170206





000
SAUS44 KMEG 032107
MTRTUP
SPECI KTUP 032106Z 23005KT 2 1/2SM -RA BR FEW033 BKN047 OVC090 22/21
A2999 RMK AO2 TSE05 P0005 T02170206





000
SAUS44 KMEG 032106
MTRTUP
SPECI KTUP 032104Z 24006KT 3SM -TSRA BR FEW033 BKN047 OVC090 22/21
A2999 RMK AO2 P0005 T02170206





000
SAUS44 KMEG 032054
MTRTUP
METAR KTUP 032053Z 24004G15KT 1 1/2SM +TSRA BR FEW031 OVC043 22/21
A2998 RMK AO2 TSB30 SLP150 P0069 60098 T02170206 58009





000
SAUS44 KMEG 032049
MTRTUP
SPECI KTUP 032048Z 24006G15KT 1 3/4SM +TSRA BR FEW029 BKN035 OVC075
22/21 A2999 RMK AO2 LTG DSNT SW TSB30 P0066





000
SAUS44 KMEG 032040
MTRTUP
SPECI KTUP 032039Z 23009KT 2SM +TSRA BR BKN032 OVC100 22/21 A2999
RMK AO2 LTG DSNT SW AND W TSB30 P0059 T02170206





000
SAUS44 KMEG 032033
MTRTUP
SPECI KTUP 032032Z 26008KT 3/4SM +TSRA BR BKN030 BKN047 OVC100 22/20
A2999 RMK AO2 LTG DSNT SW AND W TSB30 P0056 T02170200





000
SAUS44 KMEG 032022
MTRTUP
SPECI KTUP 032021Z VRB06KT 3/4SM VCTS +RA BR FEW004 BKN021 OVC047
22/21 A3000 RMK AO2 LTG DSNT SW AND W P0023 T02170206





000
SAUS44 KMEG 032019
MTRTUP
SPECI KTUP 032018Z VRB04KT 2SM -RA BR FEW004 BKN033 OVC047 22/21
A3001 RMK AO2 LTG DSNT SW AND W P0019 T02170206





000
SAUS44 KMEG 032012
MTRTUP
SPECI KTUP 032011Z 00000KT 3SM -RA BR FEW004 BKN023 OVC046 22/21
A3001 RMK AO2 LTG DSNT SW AND W P0018 T02170211





000
SAUS44 KMEG 032006
MTRTUP
SPECI KTUP 032005Z 00000KT 1 3/4SM RA BR SCT004 BKN022 OVC050 22/21
A3000 RMK AO2 LTG DSNT W AND NW P0016 T02170211





000
SAUS44 KMEG 031954
MTRTUP
METAR KTUP 031953Z 09006KT 1/2SM +RA FG FEW008 SCT019 OVC026 22/21
A3001 RMK AO2 LTG DSNT W AND NW RAB34 SLP157 P0029 T02170206





000
SAUS44 KMEG 031954
MTRTUP
METAR KTUP 031953Z 09006KT 1/2SM +RA FG FEW008 SCT019 OVC026 22/21
A3001 RMK AO2 LTG DSNT W AND NW RAB34 SLP157 P0029 T02170206





000
SAUS44 KMEG 031949
MTRTUP
SPECI KTUP 031947Z 06004KT 1 1/4SM RA BR SCT008 BKN028 OVC085 22/21
A3002 RMK AO2 LTG DSNT W RAB34 P0004





000
SAUS44 KMEG 031945
MTRTUP
SPECI KTUP 031943Z VRB03KT 5SM VCTS RA BR SCT008 BKN028 OVC050 22/21
A3001 RMK AO2 LTG DSNT W RAB34 P0003 T02220206





000
SAUS44 KMEG 031933
MTRTUP
SPECI KTUP 031932Z 10003KT 10SM VCTS SCT006 BKN012 OVC029 22/21
A3002 RMK AO2 LTG DSNT W AND NW T02220211





000
SAUS44 KMEG 031933
MTRTUP
SPECI KTUP 031932Z 10003KT 10SM VCTS SCT006 BKN012 OVC029 22/21
A3002 RMK AO2 LTG DSNT W AND NW T02220211





000
SAUS44 KMEG 031854
MTRTUP
METAR KTUP 031853Z 13005KT 10SM BKN006 BKN030 BKN050 23/21 A3001 RMK
AO2 LTG DSNT W AND NW RAB12E24 SLP158 P0000 T02280211





000
SAUS44 KMEG 031854
MTRTUP
METAR KTUP 031853Z 13005KT 10SM BKN006 BKN030 BKN050 23/21 A3001 RMK
AO2 LTG DSNT W AND NW RAB12E24 SLP158 P0000 T02280211





000
SAUS44 KMEG 031846
MTRTUP
SPECI KTUP 031844Z 17006KT 10SM BKN006 BKN026 OVC033 22/21 A3002 RMK
AO2 LTG DSNT W AND NW RAB12E24 P0000 T02220206





000
SAUS44 KMEG 031831
MTRTUP
SPECI KTUP 031830Z 17004KT 10SM SCT006 BKN026 OVC049 22/21 A3003 RMK
AO2 LTG DSNT W AND NW RAB12E24 P0000 T02220206





000
SAUS44 KMEG 031754
MTRTUP
METAR KTUP 031753Z 15005KT 10SM FEW004 BKN030 BKN045 22/21 A3002 RMK
AO2 LTG DSNT NW-E RAE30 TSB05E27 SLP160 P0024 60251 T02170211 10217
20211 58002





000
SAUS44 KMEG 031750
MTRTUP
SPECI KTUP 031749Z 13005KT 10SM FEW004 BKN030 BKN045 22/21 A3002 RMK
AO2 LTG DSNT NW-E RAE30 TSB05E27 P0024





000
SAUS44 KMEG 031735
MTRTUP
SPECI KTUP 031733Z 15003KT 10SM FEW006 BKN028 OVC050 21/21 A3003 RMK
AO2 RAE30 TSB05E27 P0024 T02110206





000
SAUS44 KMEG 031735
MTRTUP
SPECI KTUP 031733Z 15003KT 10SM FEW006 BKN028 OVC050 21/21 A3003 RMK
AO2 RAE30 TSB05E27 P0024 T02110206





000
SAUS44 KMEG 031726
MTRTUP
SPECI KTUP 031725Z 05003KT 4SM -TSRA BR FEW006 BKN033 OVC050 21/21
A3003 RMK AO2 TSB05 P0024 T02110206





000
SAUS44 KMEG 031726
MTRTUP
SPECI KTUP 031725Z 05003KT 4SM -TSRA BR FEW006 BKN033 OVC050 21/21
A3003 RMK AO2 TSB05 P0024 T02110206





000
SAUS44 KMEG 031720
MTRTUP
SPECI KTUP 031719Z 00000KT 1SM TSRA BR FEW006 BKN030 OVC044 21/21
A3003 RMK AO2 VIS 1/2V4 TSB05 P0022 T02110206





000
SAUS44 KMEG 031713
MTRTUP
SPECI KTUP 031712Z 00000KT 3/4SM +TSRA BR FEW017 BKN028 OVC045 21/21
A3004 RMK AO2 LTG DSNT NW TSB05 PRESRR P0015 T02110206





000
SAUS44 KMEG 031708
MTRTUP
SPECI KTUP 031707Z 35005KT 1 1/2SM +TSRA BR FEW010 BKN030 OVC039
21/21 A3004 RMK AO2 VIS 1/2V5 LTG DSNT NW TSB05 P0003 T02110206





000
SAUS44 KMEG 031654
MTRTUP
METAR KTUP 031653Z 19003KT 8SM VCTS -RA FEW020 BKN045 OVC070 21/21
A3002 RMK AO2 LTG DSNT W AND NW SLP163 P0048 T02110206





000
SAUS44 KMEG 031647
MTRTUP
SPECI KTUP 031645Z 19005KT 4SM -RA BR SCT028 BKN047 OVC090 21/20
A3002 RMK AO2 LTG DSNT W AND NW P0048 T02110200





000
SAUS44 KMEG 031647
MTRTUP
SPECI KTUP 031645Z 19005KT 4SM -RA BR SCT028 BKN047 OVC090 21/20
A3002 RMK AO2 LTG DSNT W AND NW P0048 T02110200





000
SAUS44 KMEG 031638
MTRTUP
SPECI KTUP 031637Z 18006KT 2SM VCTS -RA BR SCT030 BKN043 OVC080
21/20 A3001 RMK AO2 LTG DSNT NW P0046 T02110200





000
SAUS44 KMEG 031632
MTRTUP
SPECI KTUP 031631Z 15006KT 3/4SM VCTS +RA BR SCT026 BKN045 OVC060
21/20 A3001 RMK AO2 LTG DSNT W AND NW P0040 T02110200





000
SAUS44 KMEG 031628
MTRTUP
SPECI KTUP 031626Z 13004KT 1/2SM +RA FG BKN028 BKN055 OVC095 21/20
A3000 RMK AO2 LTG DSNT W AND NW P0026 T02110200





000
SAUS44 KMEG 031628
MTRTUP
SPECI KTUP 031626Z 13004KT 1/2SM +RA FG BKN028 BKN055 OVC095 21/20
A3000 RMK AO2 LTG DSNT W AND NW P0026 T02110200





000
SAUS44 KMEG 031621
MTRTUP
SPECI KTUP 031620Z 00000KT 1 1/2SM RA BR SCT040 BKN050 OVC110 21/20
A3002 RMK AO2 LTG DSNT W AND NW P0011 T02110200





000
SAUS44 KMEG 031611
MTRTUP
SPECI KTUP 031610Z 17003KT 6SM -RA BR SCT039 BKN060 OVC110 21/20
A3001 RMK AO2 LTG DSNT W P0010 T02110200





000
SAUS44 KMEG 031603
MTRTUP
SPECI KTUP 031602Z 10004KT 2SM -RA BR BKN039 OVC100 21/20 A3001 RMK
AO2 LTG DSNT W AND NW PRESFR P0009 T02110200





000
SAUS44 KMEG 031555
MTRTUP
METAR KTUP 031553Z VRB03KT 1SM VCTS +RA BR BKN037 BKN045 OVC060
21/20 A3002 RMK AO2 LTG DSNT E AND W AND NW TSE03 SLP162 P0059
T02110200





000
SAUS44 KMEG 031538
MTRTUP
SPECI KTUP 031536Z 00000KT 1 1/2SM VCTS +RA BR BKN032 BKN046 OVC060
21/21 A3003 RMK AO2 LTG DSNT ALQDS TSE03 P0042 T02110206





000
SAUS44 KMEG 031529
MTRTUP
SPECI KTUP 031528Z 06005KT 4SM VCTS -RA BR SCT032 BKN045 OVC075
21/20 A3002 RMK AO2 LTG DSNT SE AND W TSE03 P0041 T02110200





000
SAUS44 KMEG 031517
MTRTUP
SPECI KTUP 031516Z 02006KT 1SM VCTS +RA BR BKN038 OVC050 21/19 A3003
RMK AO2 LTG DSNT ALQDS TSE03 P0029 T02110194





000
SAUS44 KMEG 031504
MTRTUP
SPECI KTUP 031503Z 24003KT 3/4SM VCTS +RA BR BKN040 OVC050 21/20
A3002 RMK AO2 LTG DSNT ALQDS TSE03 P0012 T02110200





000
SAUS44 KMEG 031454
MTRTUP
METAR KTUP 031453Z 35004KT 1 1/2SM TSRA BR BKN042 OVC060 21/20 A3003
RMK AO2 LTG DSNT ALQDS TSB04E20B35 SLP164 P0064 60120 T02110200
51018





000
SAUS44 KMEG 031453
MTRTUP
SPECI KTUP 031451Z 33004KT 1 1/2SM +TSRA BR OVC042 22/20 A3003 RMK
AO2 LTG DSNT SE-W TSB04E20B35 P0062





000
SAUS44 KMEG 031453
MTRTUP
SPECI KTUP 031451Z 33004KT 1 1/2SM +TSRA BR OVC042 22/20 A3003 RMK
AO2 LTG DSNT SE-W TSB04E20B35 P0062





000
SAUS44 KMEG 031443
MTRTUP
SPECI KTUP 031441Z VRB03KT 3/4SM +TSRA BR OVC038 22/21 A3001 RMK AO2
LTG DSNT ALQDS TSB04E20B35 P0056 T02170206





000
SAUS44 KMEG 031443
MTRTUP
SPECI KTUP 031441Z VRB03KT 3/4SM +TSRA BR OVC038 22/21 A3001 RMK AO2
LTG DSNT ALQDS TSB04E20B35 P0056 T02170206





000
SAUS44 KMEG 031434
MTRTUP
SPECI KTUP 031433Z 29003KT 3/4SM VCTS +RA BR BKN038 OVC070 22/21
A3002 RMK AO2 LTG DSNT ALQDS TSB04E20 P0041 T02170206





000
SAUS44 KMEG 031434
MTRTUP
SPECI KTUP 031433Z 29003KT 3/4SM VCTS +RA BR BKN038 OVC070 22/21
A3002 RMK AO2 LTG DSNT ALQDS TSB04E20 P0041 T02170206





000
SAUS44 KMEG 031421
MTRTUP
SPECI KTUP 031420Z 31004KT 1 1/2SM VCTS +RA BR BKN045 BKN055 OVC070
22/21 A3002 RMK AO2 LTG DSNT ALQDS TSB04E20 P0019 T02170206





000
SAUS44 KMEG 031421
MTRTUP
SPECI KTUP 031420Z 31004KT 1 1/2SM VCTS +RA BR BKN045 BKN055 OVC070
22/21 A3002 RMK AO2 LTG DSNT ALQDS TSB04E20 P0019 T02170206





000
SAUS44 KMEG 031415
MTRTUP
SPECI KTUP 031414Z 28005KT 7SM -TSRA FEW019 BKN045 OVC070 22/21
A3001 RMK AO2 LTG DSNT ALQDS TSB04 P0017 T02170206





000
SAUS44 KMEG 031415
MTRTUP
SPECI KTUP 031414Z 28005KT 7SM -TSRA FEW019 BKN045 OVC070 22/21
A3001 RMK AO2 LTG DSNT ALQDS TSB04 P0017 T02170206





000
SAUS44 KMEG 031408
MTRTUP
SPECI KTUP 031407Z 34003KT 2 1/2SM -TSRA BR FEW016 OVC048 22/20
A3000 RMK AO2 LTG DSNT ALQDS TSB04 P0016 T02170200





000
SAUS44 KMEG 031354
MTRTUP
METAR KTUP 031353Z 29004KT 1 3/4SM VCTS +RA BR SCT021 BKN047 OVC110
22/20 A3000 RMK AO2 LTG DSNT ALQDS TSB21E36 SLP155 P0038 T02170200





000
SAUS44 KMEG 031337
MTRTUP
SPECI KTUP 031336Z 00000KT 7SM VCTS -RA SCT029 BKN050 OVC110 22/21
A3000 RMK AO2 LTG DSNT ALQDS TSB21E36 P0035 T02170206





000
SAUS44 KMEG 031331
MTRTUP
SPECI KTUP 031330Z 21005KT 2 1/2SM -TSRA BR SCT029 BKN050 OVC110
22/21 A2998 RMK AO2 LTG DSNT ALQDS TSB21 P0034 T02170206





000
SAUS44 KMEG 031331
MTRTUP
SPECI KTUP 031330Z 21005KT 2 1/2SM -TSRA BR SCT029 BKN050 OVC110
22/21 A2998 RMK AO2 LTG DSNT ALQDS TSB21 P0034 T02170206





000
SAUS44 KMEG 031325
MTRTUP
SPECI KTUP 031324Z 18008KT 1/2SM +TSRA FG SCT027 BKN034 OVC110 21/20
A2997 RMK AO2 LTG DSNT ALQDS TSB21 P0033 T02110200





000
SAUS44 KMEG 031325
MTRTUP
SPECI KTUP 031324Z 18008KT 1/2SM +TSRA FG SCT027 BKN034 OVC110 21/20
A2997 RMK AO2 LTG DSNT ALQDS TSB21 P0033 T02110200





000
SAUS44 KMEG 031318
MTRTUP
SPECI KTUP 031317Z VRB03KT 1/2SM VCTS +RA FG BKN029 BKN044 OVC110
22/20 A3000 RMK AO2 LTG DSNT ALQDS P0018 T02170200





000
SAUS44 KMEG 031318
MTRTUP
SPECI KTUP 031317Z VRB03KT 1/2SM VCTS +RA FG BKN029 BKN044 OVC110
22/20 A3000 RMK AO2 LTG DSNT ALQDS P0018 T02170200





000
SAUS44 KMEG 031311
MTRTUP
SPECI KTUP 031310Z 30005KT 1 3/4SM VCTS RA BR SCT033 BKN049 OVC110
22/19 A3001 RMK AO2 LTG DSNT ALQDS PRESRR P0004 T02170194





000
SAUS44 KMEG 031311
MTRTUP
SPECI KTUP 031310Z 30005KT 1 3/4SM VCTS RA BR SCT033 BKN049 OVC110
22/19 A3001 RMK AO2 LTG DSNT ALQDS PRESRR P0004 T02170194





000
SAUS44 KMEG 031254
MTRTUP
METAR KTUP 031253Z 24006KT 6SM VCTS -RA BR SCT042 BKN080 OVC120
22/20 A2997 RMK AO2 LTG DSNT ALQDS SLP145 P0018 T02170200





000
SAUS44 KMEG 031240
MTRTUP
SPECI KTUP 031239Z 27006KT 2 1/2SM VCTS RA BR FEW055 BKN100 BKN110
22/20 A2997 RMK AO2 LTG DSNT ALQDS P0013 T02170200





000
SAUS44 KMEG 031221
MTRTUP
SPECI KTUP 031220Z 26009KT 5SM RA BR BKN110 22/21 A2997 RMK AO2 LTG
DSNT S-NW P0007 T02170206





000
SAUS44 KMEG 031221
MTRTUP
SPECI KTUP 031220Z 26009KT 5SM RA BR BKN110 22/21 A2997 RMK AO2 LTG
DSNT S-NW P0007 T02170206





000
SAUS44 KMEG 031157
MTRTUP
SPECI KTUP 031156Z 24008KT 3SM VCTS RA BR FEW065 BKN090 OVC110 22/21
A2995 RMK AO2 LTG DSNT ALQDS P0001 T02170206





000
SAUS44 KMEG 031157
MTRTUP
SPECI KTUP 031156Z 24008KT 3SM VCTS RA BR FEW065 BKN090 OVC110 22/21
A2995 RMK AO2 LTG DSNT ALQDS P0001 T02170206





000
SAUS44 KMEG 031154
MTRTUP
METAR KTUP 031153Z 25008KT 1 1/4SM VCTS RA BR FEW055 BKN090 BKN120
22/21 A2996 RMK AO2 LTG DSNT ALQDS TSE08B33E48 SLP140 P0022 60245
70245 T02170206 10267 20217 53018





000
SAUS44 KMEG 031149
MTRTUP
SPECI KTUP 031148Z 25007KT 1 1/4SM VCTS RA BR FEW048 BKN090 OVC120
22/21 A2996 RMK AO2 LTG DSNT ALQDS TSE08B33E48 P0020





000
SAUS44 KMEG 031141
MTRTUP
SPECI KTUP 031139Z 25009G17KT 4SM TSRA BR FEW049 BKN095 OVC120 22/21
A2996 RMK AO2 LTG DSNT ALQDS TSE08B33 P0015 T02220206





000
SAUS44 KMEG 031141
MTRTUP
SPECI KTUP 031139Z 25009G17KT 4SM TSRA BR FEW049 BKN095 OVC120 22/21
A2996 RMK AO2 LTG DSNT ALQDS TSE08B33 P0015 T02220206





000
SAUS44 KMEG 031115
MTRTUP
SPECI KTUP 031114Z 24007KT 4SM VCTS -RA BR FEW016 BKN095 OVC120
22/20 A2995 RMK AO2 LTG DSNT ALQDS TSE08 P0008 T02170200





000
SAUS44 KMEG 031054
MTRTUP
METAR KTUP 031053Z VRB05KT 4SM -TSRA BR BKN020 BKN029 OVC041 22/20
A2995 RMK AO2 LTG DSNT ALQDS TSE05B06 SLP137 P0121 T02170200





000
SAUS44 KMEG 031054
MTRTUP
METAR KTUP 031053Z VRB05KT 4SM -TSRA BR BKN020 BKN029 OVC041 22/20
A2995 RMK AO2 LTG DSNT ALQDS TSE05B06 SLP137 P0121 T02170200





000
SAUS44 KMEG 031052
MTRTUP
SPECI KTUP 031051Z 29005KT 2 1/2SM -TSRA BR BKN020 BKN029 OVC041
22/20 A2995 RMK AO2 LTG DSNT ALQDS TSE05B06 P0121





000
SAUS44 KMEG 031029
MTRTUP
SPECI KTUP 031028Z 29004G20KT 3/4SM +TSRA BR BKN024 BKN055 BKN120
23/21 A2994 RMK AO2 LTG DSNT ALQDS TSE05B06 P0033 T02280211





000
SAUS44 KMEG 031025
MTRTUP
SPECI KTUP 031024Z 28009G20KT 1 1/2SM +TSRA BR SCT026 BKN043 BKN065
23/22 A2996 RMK AO2 LTG DSNT ALQDS TSE05B06 PRESRR P0010 T02330217





000
SAUS44 KMEG 030954
MTRTUP
METAR KTUP 030953Z AUTO 23007KT 5SM -TSRA BR SCT026 BKN047 OVC055
23/22 A2991 RMK AO2 LTG DSNT ALQDS RAB12 TSB04 SLP122 P0102
T02330217





000
SAUS44 KMEG 030952
MTRTUP
SPECI KTUP 030951Z AUTO 25004KT 4SM -TSRA BR BKN026 BKN035 OVC045
23/22 A2991 RMK AO2 LTG DSNT ALQDS RAB12 TSB04 P0102





000
SAUS44 KMEG 030940
MTRTUP
SPECI KTUP 030939Z AUTO 29011G19KT 1 3/4SM -TSRA BR BKN017 BKN025
OVC049 23/22 A2991 RMK AO2 LTG DSNT ALQDS RAB12 TSB04 P0085
T02330217





000
SAUS44 KMEG 030930
MTRTUP
SPECI KTUP 030929Z AUTO 24008KT 190V280 3/4SM +TSRA BR BKN017 OVC045
22/21 A2992 RMK AO2 LTG DSNT NE AND E AND W RAB12 TSB04 P0056
T02220211





000
SAUS44 KMEG 030920
MTRTUP
SPECI KTUP 030918Z AUTO 34007G18KT 290V050 1 1/2SM +TSRA BR FEW016
BKN023 OVC050 23/21 A2993 RMK AO2 VIS 3/4V5 LTG DSNT ALQDS RAB12
TSB04 P0008 T02330211





000
SAUS44 KMEG 030911
MTRTUP
SPECI KTUP 030910Z AUTO 34011G18KT 10SM TS BKN016 BKN023 OVC046
24/21 A2993 RMK AO2 LTG DSNT ALQDS TSB04 T02440211





000
SAUS44 KMEG 030854
MTRTUP
METAR KTUP 030853Z AUTO VRB03G19KT 10SM VCTS BKN016 OVC021 24/22
A2990 RMK AO2 LTG DSNT ALQDS SLP122 T02390217 53002





000
SAUS44 KMEG 030754
MTRTUP
METAR KTUP 030753Z AUTO VRB04KT 10SM VCTS BKN017 BKN060 OVC070 26/21
A2990 RMK AO2 LTG DSNT ALQDS TSB32E47 SLP121 T02560211





000
SAUS44 KMEG 030754
MTRTUP
METAR KTUP 030753Z AUTO VRB04KT 10SM VCTS BKN017 BKN060 OVC070 26/21
A2990 RMK AO2 LTG DSNT ALQDS TSB32E47 SLP121 T02560211





000
SAUS44 KMEG 030748
MTRTUP
SPECI KTUP 030747Z AUTO 02010G14KT 10SM VCTS BKN017 OVC065 26/22
A2990 RMK AO2 LTG DSNT W-NE TSB32E47





000
SAUS44 KMEG 030748
MTRTUP
SPECI KTUP 030747Z AUTO 02010G14KT 10SM VCTS BKN017 OVC065 26/22
A2990 RMK AO2 LTG DSNT W-NE TSB32E47





000
SAUS44 KMEG 030739
MTRTUP
SPECI KTUP 030738Z AUTO 32008G16KT 280V340 10SM TS FEW019 BKN060
27/23 A2990 RMK AO2 LTG DSNT NW-E TSB32 T02670228





000
SAUS44 KMEG 030723
MTRTUP
SPECI KTUP 030722Z AUTO 25006G18KT 10SM VCTS SCT065 BKN120 27/23
A2990 RMK AO2 LTG DSNT ALQDS T02670228





000
SAUS44 KMEG 030716
MTRTUP
SPECI KTUP 030715Z AUTO 26010G15KT 10SM FEW070 SCT120 27/23 A2989
RMK AO2 LTG DSNT ALQDS T02670228





000
SAUS44 KMEG 030654
MTRTUP
METAR KTUP 030653Z AUTO 25009KT 10SM VCTS FEW080 BKN120 27/23 A2990
RMK AO2 LTG DSNT W-NE SLP119 T02670233





000
SAUS44 KMEG 030651
MTRTUP
SPECI KTUP 030650Z AUTO 25006KT 10SM VCTS FEW080 BKN120 27/23 A2990
RMK AO2 LTG DSNT W-N





000
SAUS44 KMEG 030554
MTRTUP
METAR KTUP 030553Z AUTO 26008G15KT 10SM BKN080 BKN110 26/23 A2992
RMK AO2 SLP126 T02610233 10283 20256 402940244 50002





000
SAUS44 KMEG 030554
MTRTUP
METAR KTUP 030553Z AUTO 26008G15KT 10SM BKN080 BKN110 26/23 A2992
RMK AO2 SLP126 T02610233 10283 20256 402940244 50002





000
SAUS44 KMEG 030455
MTRTUP
METAR KTUP 030453Z AUTO 25008KT 10SM BKN110 26/24 A2994 RMK AO2 LTG
DSNT NW SLP133 T02610239





000
SAUS44 KMEG 030455
MTRTUP
METAR KTUP 030453Z AUTO 25008KT 10SM BKN110 26/24 A2994 RMK AO2 LTG
DSNT NW SLP133 T02610239





000
SAUS44 KMEG 030354
MTRTUP
METAR KTUP 030353Z AUTO 24007KT 10SM SCT110 26/23 A2994 RMK AO2
SLP134 T02560233





000
SAUS44 KMEG 030254
MTRTUP
METAR KTUP 030253Z 24007KT 10SM FEW100 26/23 A2991 RMK AO2 SLP124
T02610228 51006





000
SAUS44 KMEG 030154
MTRTUP
METAR KTUP 030153Z 22006KT 10SM SCT070 26/23 A2991 RMK AO2 SLP124
T02610233





000
SAUS44 KMEG 030054
MTRTUP
METAR KTUP 030053Z 24005KT 10SM FEW070 28/23 A2991 RMK AO2 SLP124
T02780228





000
SAUS44 KMEG 022354
MTRTUP
METAR KTUP 022353Z 25008KT 10SM FEW037 28/23 A2990 RMK AO2 SLP119
T02830228 10294 20267 58011 $





000
SAUS44 KMEG 022254
MTRTUP
METAR KTUP 022253Z 26010KT 10SM CLR 29/22 A2991 RMK AO2 SLP123
T02940217





000
SAUS44 KMEG 022154
MTRTUP
METAR KTUP 022153Z 27012G17KT 10SM CLR 29/21 A2992 RMK AO2 SLP127
T02890211





000
SAUS44 KMEG 022054
MTRTUP
METAR KTUP 022053Z 25008KT 10SM CLR 28/22 A2993 RMK AO2 SLP130
T02830217 55012





000
SAUS44 KMEG 021954
MTRTUP
METAR KTUP 021953Z 25008KT 10SM CLR 29/22 A2993 RMK AO2 SLP130
T02890222





000
SAUS44 KMEG 021854
MTRTUP
METAR KTUP 021853Z 24008G14KT 10SM CLR 28/21 A2994 RMK AO2 SLP133
T02780206





000
SAUS44 KMEG 021854
MTRTUP
METAR KTUP 021853Z 24008G14KT 10SM CLR 28/21 A2994 RMK AO2 SLP133
T02780206





000
SAUS44 KMEG 021754
MTRTUP
METAR KTUP 021753Z 26010G17KT 10SM CLR 27/21 A2996 RMK AO2 SLP142
T02670206 10289 20250 58004





000
SAUS44 KMEG 021754
MTRTUP
METAR KTUP 021753Z 26010G17KT 10SM CLR 27/21 A2996 RMK AO2 SLP142
T02670206 10289 20250 58004





000
SAUS44 KMEG 021654
MTRTUP
METAR KTUP 021653Z 26014G19KT 10SM FEW100 27/20 A2997 RMK AO2 SLP145
T02720200





000
SAUS44 KMEG 021554
MTRTUP
METAR KTUP 021553Z 26007G20KT 10SM CLR 28/21 A2997 RMK AO2 SLP143
T02830211 $





000
SAUS44 KMEG 021454
MTRTUP
METAR KTUP 021453Z 26008G18KT 10SM SCT100 28/21 A2997 RMK AO2 SLP145
T02830211 51005





000
SAUS44 KMEG 021354
MTRTUP
METAR KTUP 021353Z 27007KT 10SM FEW085 SCT110 26/22 A2997 RMK AO2
SLP145 T02610217





000
SAUS44 KMEG 021354
MTRTUP
METAR KTUP 021353Z 27007KT 10SM FEW085 SCT110 26/22 A2997 RMK AO2
SLP145 T02610217





000
SAUS44 KMEG 021254
MTRTUP
METAR KTUP 021253Z 25009KT 10SM CLR 26/22 A2996 RMK AO2 SLP141
T02560222





000
SAUS44 KMEG 021154
MTRTUP
METAR KTUP 021153Z 25007KT 10SM CLR 25/22 A2996 RMK AO2 SLP140 70001
T02500222 10256 20244 53006





000
SAUS44 KMEG 021054
MTRTUP
METAR KTUP 021053Z 26006KT 10SM CLR 24/22 A2995 RMK AO2 SLP136
T02440222





000
SAUS44 KMEG 021054
MTRTUP
METAR KTUP 021053Z 26006KT 10SM CLR 24/22 A2995 RMK AO2 SLP136
T02440222





000
SAUS44 KMEG 020954
MTRTUP
METAR KTUP 020953Z AUTO 25006KT 10SM CLR 25/22 A2994 RMK AO2 SLP133
T02500222





000
SAUS44 KMEG 020854
MTRTUP
METAR KTUP 020853Z AUTO 24006KT 10SM CLR 25/22 A2994 RMK AO2 SLP134
T02500222 56008





000
SAUS44 KMEG 020854
MTRTUP
METAR KTUP 020853Z AUTO 24006KT 10SM CLR 25/22 A2994 RMK AO2 SLP134
T02500222 56008





000
SAUS44 KMEG 020754
MTRTUP
METAR KTUP 020753Z AUTO 24009KT 10SM CLR 26/22 A2995 RMK AO2 SLP137
T02560222





000
SAUS44 KMEG 020654
MTRTUP
METAR KTUP 020653Z AUTO 24007KT 10SM CLR 26/22 A2995 RMK AO2 SLP139
T02560222





000
SAUS44 KMEG 020554
MTRTUP
METAR KTUP 020553Z AUTO 22005KT 10SM CLR 25/22 A2997 RMK AO2 SLP143
T02500222 10289 20244 403110217 56006





000
SAUS44 KMEG 020454
MTRTUP
METAR KTUP 020453Z AUTO 23004KT 10SM CLR 25/22 A2997 RMK AO2 SLP143
T02500222





000
SAUS44 KMEG 020354
MTRTUP
METAR KTUP 020353Z AUTO 22006KT 10SM CLR 26/23 A2996 RMK AO2 SLP141
T02560228





000
SAUS44 KMEG 020254
MTRTUP
METAR KTUP 020253Z 24006KT 10SM CLR 26/23 A2999 RMK AO2 SLP150
T02610228 50006





000
SAUS44 KMEG 020154
MTRTUP
METAR KTUP 020153Z 22007KT 10SM CLR 27/23 A2999 RMK AO2 SLP151
T02720233





000
SAUS44 KMEG 020154
MTRTUP
METAR KTUP 020153Z 22007KT 10SM CLR 27/23 A2999 RMK AO2 SLP151
T02720233





000
SAUS44 KMEG 020054
MTRTUP
METAR KTUP 020053Z 25006KT 10SM CLR 28/24 A2998 RMK AO2 SLP148
T02830239





000
SAUS44 KMEG 012354
MTRTUP
METAR KTUP 012353Z 24007KT 10SM CLR 29/24 A2997 RMK AO2 LTG DSNT SE
SLP143 60001 T02890239 10311 20250 50000





000
SAUS44 KMEG 012354
MTRTUP
METAR KTUP 012353Z 24007KT 10SM CLR 29/24 A2997 RMK AO2 LTG DSNT SE
SLP143 60001 T02890239 10311 20250 50000





000
SAUS44 KMEG 012255
MTRTUP
METAR KTUP 012253Z 00000KT 10SM FEW030 28/24 A2997 RMK AO2 LTG DSNT
NE AND SE TSE22 SLP143 T02830244





000
SAUS44 KMEG 012255
MTRTUP
METAR KTUP 012253Z 00000KT 10SM FEW030 28/24 A2997 RMK AO2 LTG DSNT
NE AND SE TSE22 SLP143 T02830244





000
SAUS44 KMEG 012242
MTRTUP
SPECI KTUP 012240Z 00000KT 10SM FEW030 FEW039 FEW048 29/23 A2997 RMK
AO2 LTG DSNT NE-SE TSE22 T02890228





000
SAUS44 KMEG 012229
MTRTUP
SPECI KTUP 012228Z 00000KT 10SM VCTS FEW031 FEW046 FEW055 28/23
A2996 RMK AO2 LTG DSNT NE AND E TSE22 T02830233





000
SAUS44 KMEG 012229
MTRTUP
SPECI KTUP 012228Z 00000KT 10SM VCTS FEW031 FEW046 FEW055 28/23
A2996 RMK AO2 LTG DSNT NE AND E TSE22 T02830233





000
SAUS44 KMEG 012220
MTRTUP
SPECI KTUP 012219Z 00000KT 10SM TS SCT029 SCT038 BKN050 28/23 A2996
RMK AO2 LTG DSNT NE AND E T02830233





000
SAUS44 KMEG 012220
MTRTUP
SPECI KTUP 012219Z 00000KT 10SM TS SCT029 SCT038 BKN050 28/23 A2996
RMK AO2 LTG DSNT NE AND E T02830233





000
SAUS44 KMEG 012154
MTRTUP
METAR KTUP 012153Z 06012KT 9SM TS BKN028 BKN039 OVC050 25/21 A2997
RMK AO2 LTG DSNT E RAB31E40 TSB24 SLP144 P0001 T02500211





000
SAUS44 KMEG 012123
MTRTUP
SPECI KTUP 012122Z 27010G16KT 10SM VCTS FEW048 SCT065 SCT090 31/23
A2995 RMK AO2 LTG DSNT E T03060228





    US Dept of Commerce
    National Oceanic and Atmospheric Administration
    National Weather Service
    1325 East West Highway
    Silver Spring, MD 20910
    Page Author: NWS Internet Services Team
Disclaimer
Information Quality
Credits
Glossary
Privacy Policy
Freedom of Information Act (FOIA)
About Us
Career Opportunities